sensor_id;sensor_type;location;lat;lon;timestamp;temperature;humidity
16513;DHT22;8369;48.030;11.598;2022-09-09T00:04:37;16.20;99.90
16513;DHT22;8369;48.030;11.598;2022-09-09T00:09:47;16.10;99.90
16513;DHT22;8369;48.030;11.598;2022-09-09T00:12:38;16.10;99.90
16513;DHT22;8369;48.030;11.598;2022-09-09T00:15:14;16.00;99.90
16513;DHT22;8369;48.030;11.598;2022-09-09T00:17:59;16.00;99.90
16513;DHT22;8369;48.030;11.598;2022-09-09T00:20:44;16.00;99.90
16513;DHT22;8369;48.030;11.598;2022-09-09T00:27:06;15.90;99.90
16513;DHT22;8369;48.030;11.598;2022-09-09T00:29:53;15.90;99.90
16513;DHT22;8369;48.030;11.598;2022-09-09T00:32:20;15.90;99.90
16513;DHT22;8369;48.030;11.598;2022-09-09T00:34:58;15.90;99.90
16513;DHT22;8369;48.030;11.598;2022-09-09T00:37:26;15.90;99.90
16513;DHT22;8369;48.030;11.598;2022-09-09T00:39:55;15.90;99.90
16513;DHT22;8369;48.030;11.598;2022-09-09T00:42:42;15.90;99.90
16513;DHT22;8369;48.030;11.598;2022-09-09T00:48:02;15.90;99.90
16513;DHT22;8369;48.030;11.598;2022-09-09T00:50:57;15.90;99.90
16513;DHT22;8369;48.030;11.598;2022-09-09T00:56:25;15.90;99.90
16513;DHT22;8369;48.030;11.598;2022-09-09T00:59:23;15.90;99.90
16513;DHT22;8369;48.030;11.598;2022-09-09T01:01:44;15.90;99.90
16513;DHT22;8369;48.030;11.598;2022-09-09T01:04:14;15.90;99.90
16513;DHT22;8369;48.030;11.598;2022-09-09T01:06:43;15.90;99.90
16513;DHT22;8369;48.030;11.598;2022-09-09T01:09:26;15.90;99.90
16513;DHT22;8369;48.030;11.598;2022-09-09T01:12:03;15.90;99.90
16513;DHT22;8369;48.030;11.598;2022-09-09T01:17:25;16.00;99.90
16513;DHT22;8369;48.030;11.598;2022-09-09T01:28:34;16.00;99.90
16513;DHT22;8369;48.030;11.598;2022-09-09T01:31:04;16.00;99.90
16513;DHT22;8369;48.030;11.598;2022-09-09T01:33:31;16.10;99.90
16513;DHT22;8369;48.030;11.598;2022-09-09T01:36:23;16.10;99.90
16513;DHT22;8369;48.030;11.598;2022-09-09T01:38:51;16.10;99.90
16513;DHT22;8369;48.030;11.598;2022-09-09T01:41:17;16.10;99.90
16513;DHT22;8369;48.030;11.598;2022-09-09T01:43:43;16.10;99.90
16513;DHT22;8369;48.030;11.598;2022-09-09T01:46:12;16.10;99.90
16513;DHT22;8369;48.030;11.598;2022-09-09T01:48:39;16.00;99.90
16513;DHT22;8369;48.030;11.598;2022-09-09T01:51:08;16.10;99.90
16513;DHT22;8369;48.030;11.598;2022-09-09T01:53:36;16.10;99.90
16513;DHT22;8369;48.030;11.598;2022-09-09T02:04:37;16.10;99.90
16513;DHT22;8369;48.030;11.598;2022-09-09T02:07:07;16.10;99.90
16513;DHT22;8369;48.030;11.598;2022-09-09T02:09:38;16.10;99.90
16513;DHT22;8369;48.030;11.598;2022-09-09T02:12:09;16.10;99.90
16513;DHT22;8369;48.030;11.598;2022-09-09T02:14:42;16.10;99.90
16513;DHT22;8369;48.030;11.598;2022-09-09T02:17:11;16.10;99.90
16513;DHT22;8369;48.030;11.598;2022-09-09T02:19:46;16.10;99.90
16513;DHT22;8369;48.030;11.598;2022-09-09T02:22:19;16.10;99.90
16513;DHT22;8369;48.030;11.598;2022-09-09T02:24:47;16.10;99.90
16513;DHT22;8369;48.030;11.598;2022-09-09T02:27:14;16.10;99.90
16513;DHT22;8369;48.030;11.598;2022-09-09T02:29:43;16.10;99.90
16513;DHT22;8369;48.030;11.598;2022-09-09T02:32:17;16.00;99.90
16513;DHT22;8369;48.030;11.598;2022-09-09T02:34:47;16.00;99.90
16513;DHT22;8369;48.030;11.598;2022-09-09T02:37:17;16.00;99.90
16513;DHT22;8369;48.030;11.598;2022-09-09T02:39:44;16.00;99.90
16513;DHT22;8369;48.030;11.598;2022-09-09T02:42:10;16.00;99.90
16513;DHT22;8369;48.030;11.598;2022-09-09T02:44:37;16.00;99.90
16513;DHT22;8369;48.030;11.598;2022-09-09T02:47:16;15.90;99.90
16513;DHT22;8369;48.030;11.598;2022-09-09T02:52:47;15.90;99.90
16513;DHT22;8369;48.030;11.598;2022-09-09T02:56:33;15.90;99.90
16513;DHT22;8369;48.030;11.598;2022-09-09T02:58:27;15.90;99.90
16513;DHT22;8369;48.030;11.598;2022-09-09T03:00:53;15.90;99.90
16513;DHT22;8369;48.030;11.598;2022-09-09T03:03:23;15.90;99.90
16513;DHT22;8369;48.030;11.598;2022-09-09T03:05:49;15.90;99.90
16513;DHT22;8369;48.030;11.598;2022-09-09T03:08:16;15.90;99.90
16513;DHT22;8369;48.030;11.598;2022-09-09T03:10:42;15.80;99.90
16513;DHT22;8369;48.030;11.598;2022-09-09T03:13:08;15.90;99.90
16513;DHT22;8369;48.030;11.598;2022-09-09T03:15:34;15.80;99.90
16513;DHT22;8369;48.030;11.598;2022-09-09T03:18:01;15.80;99.90
16513;DHT22;8369;48.030;11.598;2022-09-09T03:20:28;15.80;99.90
16513;DHT22;8369;48.030;11.598;2022-09-09T03:22:55;15.80;99.90
16513;DHT22;8369;48.030;11.598;2022-09-09T03:25:22;15.80;99.90
16513;DHT22;8369;48.030;11.598;2022-09-09T03:27:52;15.80;99.90
16513;DHT22;8369;48.030;11.598;2022-09-09T03:30:25;15.80;99.90
16513;DHT22;8369;48.030;11.598;2022-09-09T03:32:52;15.70;99.90
16513;DHT22;8369;48.030;11.598;2022-09-09T03:35:19;15.70;99.90
16513;DHT22;8369;48.030;11.598;2022-09-09T03:37:45;15.70;99.90
16513;DHT22;8369;48.030;11.598;2022-09-09T03:40:12;15.70;99.90
16513;DHT22;8369;48.030;11.598;2022-09-09T03:42:38;15.60;99.90
16513;DHT22;8369;48.030;11.598;2022-09-09T03:45:09;15.60;99.90
16513;DHT22;8369;48.030;11.598;2022-09-09T03:47:36;15.60;99.90
16513;DHT22;8369;48.030;11.598;2022-09-09T03:50:03;15.60;99.90
16513;DHT22;8369;48.030;11.598;2022-09-09T03:52:31;15.50;99.90
16513;DHT22;8369;48.030;11.598;2022-09-09T03:54:59;15.50;99.90
16513;DHT22;8369;48.030;11.598;2022-09-09T03:57:27;15.50;99.90
16513;DHT22;8369;48.030;11.598;2022-09-09T03:59:53;15.50;99.90
16513;DHT22;8369;48.030;11.598;2022-09-09T04:02:20;15.50;99.90
16513;DHT22;8369;48.030;11.598;2022-09-09T04:04:47;15.50;99.90
16513;DHT22;8369;48.030;11.598;2022-09-09T04:07:13;15.50;99.90
16513;DHT22;8369;48.030;11.598;2022-09-09T04:09:39;15.50;99.90
16513;DHT22;8369;48.030;11.598;2022-09-09T04:12:05;15.50;99.90
16513;DHT22;8369;48.030;11.598;2022-09-09T04:14:32;15.40;99.90
16513;DHT22;8369;48.030;11.598;2022-09-09T04:16:58;15.40;99.90
16513;DHT22;8369;48.030;11.598;2022-09-09T04:19:25;15.40;99.90
16513;DHT22;8369;48.030;11.598;2022-09-09T04:21:51;15.40;99.90
16513;DHT22;8369;48.030;11.598;2022-09-09T04:24:17;15.40;99.90
16513;DHT22;8369;48.030;11.598;2022-09-09T04:26:43;15.40;99.90
16513;DHT22;8369;48.030;11.598;2022-09-09T04:29:13;15.40;99.90
16513;DHT22;8369;48.030;11.598;2022-09-09T04:31:39;15.40;99.90
16513;DHT22;8369;48.030;11.598;2022-09-09T04:34:09;15.40;99.90
16513;DHT22;8369;48.030;11.598;2022-09-09T04:36:35;15.40;99.90
16513;DHT22;8369;48.030;11.598;2022-09-09T04:39:02;15.30;99.90
16513;DHT22;8369;48.030;11.598;2022-09-09T04:49:58;15.30;99.90
16513;DHT22;8369;48.030;11.598;2022-09-09T05:01:08;15.20;99.90
16513;DHT22;8369;48.030;11.598;2022-09-09T05:08:33;15.30;99.90
16513;DHT22;8369;48.030;11.598;2022-09-09T05:21:28;15.30;99.90
16513;DHT22;8369;48.030;11.598;2022-09-09T05:29:16;15.30;99.90
16513;DHT22;8369;48.030;11.598;2022-09-09T05:51:26;15.50;99.90
16513;DHT22;8369;48.030;11.598;2022-09-09T05:53:53;15.50;99.90
16513;DHT22;8369;48.030;11.598;2022-09-09T05:56:29;15.60;99.90
16513;DHT22;8369;48.030;11.598;2022-09-09T05:58:56;15.60;99.90
16513;DHT22;8369;48.030;11.598;2022-09-09T06:01:32;15.60;99.90
16513;DHT22;8369;48.030;11.598;2022-09-09T06:03:58;15.70;99.90
16513;DHT22;8369;48.030;11.598;2022-09-09T06:06:31;15.70;99.90
16513;DHT22;8369;48.030;11.598;2022-09-09T06:08:57;15.80;99.90
16513;DHT22;8369;48.030;11.598;2022-09-09T06:11:29;15.80;99.90
16513;DHT22;8369;48.030;11.598;2022-09-09T06:13:58;15.90;99.90
16513;DHT22;8369;48.030;11.598;2022-09-09T06:16:27;15.90;99.90
16513;DHT22;8369;48.030;11.598;2022-09-09T06:18:54;16.00;99.90
16513;DHT22;8369;48.030;11.598;2022-09-09T06:21:37;16.00;99.90
16513;DHT22;8369;48.030;11.598;2022-09-09T06:24:06;16.10;99.90
16513;DHT22;8369;48.030;11.598;2022-09-09T06:26:39;16.10;99.90
16513;DHT22;8369;48.030;11.598;2022-09-09T06:29:07;16.20;99.90
16513;DHT22;8369;48.030;11.598;2022-09-09T06:31:34;16.20;99.90
16513;DHT22;8369;48.030;11.598;2022-09-09T06:34:04;16.20;99.90
16513;DHT22;8369;48.030;11.598;2022-09-09T06:36:32;16.20;99.90
16513;DHT22;8369;48.030;11.598;2022-09-09T06:38:59;16.20;99.90
16513;DHT22;8369;48.030;11.598;2022-09-09T06:41:29;16.20;99.90
16513;DHT22;8369;48.030;11.598;2022-09-09T06:43:56;16.30;99.90
16513;DHT22;8369;48.030;11.598;2022-09-09T06:46:30;16.30;99.90
16513;DHT22;8369;48.030;11.598;2022-09-09T06:48:59;16.30;99.90
16513;DHT22;8369;48.030;11.598;2022-09-09T06:51:30;16.30;99.90
16513;DHT22;8369;48.030;11.598;2022-09-09T06:53:58;16.40;99.90
16513;DHT22;8369;48.030;11.598;2022-09-09T06:56:35;16.40;99.90
16513;DHT22;8369;48.030;11.598;2022-09-09T06:59:04;16.40;99.90
16513;DHT22;8369;48.030;11.598;2022-09-09T07:01:36;16.40;99.90
16513;DHT22;8369;48.030;11.598;2022-09-09T07:04:03;16.40;99.90
16513;DHT22;8369;48.030;11.598;2022-09-09T07:06:35;16.50;99.90
16513;DHT22;8369;48.030;11.598;2022-09-09T07:09:05;16.50;99.90
16513;DHT22;8369;48.030;11.598;2022-09-09T07:11:34;16.50;99.90
16513;DHT22;8369;48.030;11.598;2022-09-09T07:14:02;16.50;99.90
16513;DHT22;8369;48.030;11.598;2022-09-09T07:16:29;16.50;99.90
16513;DHT22;8369;48.030;11.598;2022-09-09T07:18:57;16.60;99.90
16513;DHT22;8369;48.030;11.598;2022-09-09T07:21:31;16.60;99.90
16513;DHT22;8369;48.030;11.598;2022-09-09T07:23:57;16.60;99.90
16513;DHT22;8369;48.030;11.598;2022-09-09T07:26:27;16.60;99.90
16513;DHT22;8369;48.030;11.598;2022-09-09T07:28:54;16.60;99.90
16513;DHT22;8369;48.030;11.598;2022-09-09T07:33:51;16.70;99.90
16513;DHT22;8369;48.030;11.598;2022-09-09T07:36:28;16.60;99.90
16513;DHT22;8369;48.030;11.598;2022-09-09T07:38:57;16.60;99.90
16513;DHT22;8369;48.030;11.598;2022-09-09T07:41:28;16.60;99.90
16513;DHT22;8369;48.030;11.598;2022-09-09T07:43:55;16.60;99.90
16513;DHT22;8369;48.030;11.598;2022-09-09T07:46:24;16.60;99.90
16513;DHT22;8369;48.030;11.598;2022-09-09T07:48:55;16.60;99.90
16513;DHT22;8369;48.030;11.598;2022-09-09T07:51:29;16.60;99.90
16513;DHT22;8369;48.030;11.598;2022-09-09T07:53:59;16.60;99.90
16513;DHT22;8369;48.030;11.598;2022-09-09T07:56:26;16.60;99.90
16513;DHT22;8369;48.030;11.598;2022-09-09T07:58:54;16.60;99.90
16513;DHT22;8369;48.030;11.598;2022-09-09T08:01:25;16.60;99.90
16513;DHT22;8369;48.030;11.598;2022-09-09T08:04:04;16.60;99.90
16513;DHT22;8369;48.030;11.598;2022-09-09T08:06:54;16.60;99.90
16513;DHT22;8369;48.030;11.598;2022-09-09T08:09:21;16.70;99.90
16513;DHT22;8369;48.030;11.598;2022-09-09T08:11:50;16.70;99.90
16513;DHT22;8369;48.030;11.598;2022-09-09T08:14:16;16.80;99.90
16513;DHT22;8369;48.030;11.598;2022-09-09T08:16:47;16.80;99.90
16513;DHT22;8369;48.030;11.598;2022-09-09T08:19:13;16.90;99.90
16513;DHT22;8369;48.030;11.598;2022-09-09T08:21:44;16.90;99.90
16513;DHT22;8369;48.030;11.598;2022-09-09T08:24:11;17.00;99.90
16513;DHT22;8369;48.030;11.598;2022-09-09T08:26:43;17.00;99.90
16513;DHT22;8369;48.030;11.598;2022-09-09T08:29:10;17.10;99.90
16513;DHT22;8369;48.030;11.598;2022-09-09T08:31:39;17.10;99.90
16513;DHT22;8369;48.030;11.598;2022-09-09T08:34:06;17.20;99.90
16513;DHT22;8369;48.030;11.598;2022-09-09T08:36:35;17.20;99.90
16513;DHT22;8369;48.030;11.598;2022-09-09T08:39:03;17.20;99.90
16513;DHT22;8369;48.030;11.598;2022-09-09T08:44:37;17.30;99.90
16513;DHT22;8369;48.030;11.598;2022-09-09T08:52:59;17.30;99.90
16513;DHT22;8369;48.030;11.598;2022-09-09T08:55:35;17.30;99.90
16513;DHT22;8369;48.030;11.598;2022-09-09T08:58:16;17.40;99.90
16513;DHT22;8369;48.030;11.598;2022-09-09T09:01:02;17.30;99.90
16513;DHT22;8369;48.030;11.598;2022-09-09T09:11:23;17.30;99.90
16513;DHT22;8369;48.030;11.598;2022-09-09T09:13:57;17.30;99.90
16513;DHT22;8369;48.030;11.598;2022-09-09T09:16:31;17.30;99.90
16513;DHT22;8369;48.030;11.598;2022-09-09T09:18:59;17.30;99.90
16513;DHT22;8369;48.030;11.598;2022-09-09T09:21:43;17.30;99.90
16513;DHT22;8369;48.030;11.598;2022-09-09T09:24:52;17.30;99.90
16513;DHT22;8369;48.030;11.598;2022-09-09T09:27:34;17.30;99.90
16513;DHT22;8369;48.030;11.598;2022-09-09T09:30:20;17.40;99.90
16513;DHT22;8369;48.030;11.598;2022-09-09T09:33:03;17.40;99.90
16513;DHT22;8369;48.030;11.598;2022-09-09T09:35:30;17.40;99.90
16513;DHT22;8369;48.030;11.598;2022-09-09T09:37:56;17.50;99.90
16513;DHT22;8369;48.030;11.598;2022-09-09T09:40:22;17.50;99.90
16513;DHT22;8369;48.030;11.598;2022-09-09T09:42:59;17.50;99.90
16513;DHT22;8369;48.030;11.598;2022-09-09T09:45:34;17.60;99.90
16513;DHT22;8369;48.030;11.598;2022-09-09T09:48:03;17.60;99.90
16513;DHT22;8369;48.030;11.598;2022-09-09T09:50:31;17.60;99.90
16513;DHT22;8369;48.030;11.598;2022-09-09T09:52:59;17.60;99.90
16513;DHT22;8369;48.030;11.598;2022-09-09T09:55:28;17.60;99.90
16513;DHT22;8369;48.030;11.598;2022-09-09T09:58:06;17.60;99.90
16513;DHT22;8369;48.030;11.598;2022-09-09T10:00:35;17.60;99.90
16513;DHT22;8369;48.030;11.598;2022-09-09T10:03:01;17.60;99.90
16513;DHT22;8369;48.030;11.598;2022-09-09T10:05:29;17.60;99.90
16513;DHT22;8369;48.030;11.598;2022-09-09T10:08:20;17.60;99.90
16513;DHT22;8369;48.030;11.598;2022-09-09T10:11:09;17.60;99.90
16513;DHT22;8369;48.030;11.598;2022-09-09T10:19:15;17.70;99.90
16513;DHT22;8369;48.030;11.598;2022-09-09T10:24:33;17.70;99.90
16513;DHT22;8369;48.030;11.598;2022-09-09T10:32:41;17.70;99.90
16513;DHT22;8369;48.030;11.598;2022-09-09T10:35:30;17.70;99.90
16513;DHT22;8369;48.030;11.598;2022-09-09T10:38:21;17.70;99.90
16513;DHT22;8369;48.030;11.598;2022-09-09T10:41:06;17.80;99.90
16513;DHT22;8369;48.030;11.598;2022-09-09T10:52:04;18.00;99.90
16513;DHT22;8369;48.030;11.598;2022-09-09T10:57:44;18.10;99.90
16513;DHT22;8369;48.030;11.598;2022-09-09T11:00:21;18.10;99.90
16513;DHT22;8369;48.030;11.598;2022-09-09T11:03:15;18.20;99.90
16513;DHT22;8369;48.030;11.598;2022-09-09T11:18:42;18.40;99.90
16513;DHT22;8369;48.030;11.598;2022-09-09T11:21:16;18.40;99.90
16513;DHT22;8369;48.030;11.598;2022-09-09T11:23:56;18.50;99.90
16513;DHT22;8369;48.030;11.598;2022-09-09T11:26:47;18.50;99.90
16513;DHT22;8369;48.030;11.598;2022-09-09T11:35:16;18.70;99.90
16513;DHT22;8369;48.030;11.598;2022-09-09T11:38:27;18.80;99.90
16513;DHT22;8369;48.030;11.598;2022-09-09T11:41:02;18.80;99.90
16513;DHT22;8369;48.030;11.598;2022-09-09T11:45:58;18.90;99.90
16513;DHT22;8369;48.030;11.598;2022-09-09T11:51:08;19.00;99.90
16513;DHT22;8369;48.030;11.598;2022-09-09T11:53:52;19.00;99.90
16513;DHT22;8369;48.030;11.598;2022-09-09T11:56:34;19.10;99.90
16513;DHT22;8369;48.030;11.598;2022-09-09T11:59:29;19.10;99.90
16513;DHT22;8369;48.030;11.598;2022-09-09T12:01:59;19.10;99.90
16513;DHT22;8369;48.030;11.598;2022-09-09T12:19:41;19.20;99.90
16513;DHT22;8369;48.030;11.598;2022-09-09T12:22:34;19.20;99.90
16513;DHT22;8369;48.030;11.598;2022-09-09T12:25:26;19.30;99.90
16513;DHT22;8369;48.030;11.598;2022-09-09T12:28:06;19.30;99.90
16513;DHT22;8369;48.030;11.598;2022-09-09T12:33:37;19.40;99.90
16513;DHT22;8369;48.030;11.598;2022-09-09T12:36:11;19.40;99.90
16513;DHT22;8369;48.030;11.598;2022-09-09T12:38:41;19.40;99.90
16513;DHT22;8369;48.030;11.598;2022-09-09T12:43:50;19.60;99.90
16513;DHT22;8369;48.030;11.598;2022-09-09T12:46:36;19.60;99.90
16513;DHT22;8369;48.030;11.598;2022-09-09T12:49:20;19.60;99.90
16513;DHT22;8369;48.030;11.598;2022-09-09T12:51:50;19.60;99.90
16513;DHT22;8369;48.030;11.598;2022-09-09T12:54:16;19.70;99.90
16513;DHT22;8369;48.030;11.598;2022-09-09T12:56:47;19.70;99.90
16513;DHT22;8369;48.030;11.598;2022-09-09T12:59:38;19.70;99.90
16513;DHT22;8369;48.030;11.598;2022-09-09T13:02:21;19.70;99.90
16513;DHT22;8369;48.030;11.598;2022-09-09T13:04:48;19.70;99.90
16513;DHT22;8369;48.030;11.598;2022-09-09T13:07:17;19.60;99.90
16513;DHT22;8369;48.030;11.598;2022-09-09T13:09:45;19.70;99.90
16513;DHT22;8369;48.030;11.598;2022-09-09T13:12:30;19.60;99.90
16513;DHT22;8369;48.030;11.598;2022-09-09T13:14:57;19.70;99.90
16513;DHT22;8369;48.030;11.598;2022-09-09T13:17:25;19.60;99.90
16513;DHT22;8369;48.030;11.598;2022-09-09T13:19:52;19.60;99.90
16513;DHT22;8369;48.030;11.598;2022-09-09T13:25:03;19.60;99.90
16513;DHT22;8369;48.030;11.598;2022-09-09T13:27:50;19.50;99.90
16513;DHT22;8369;48.030;11.598;2022-09-09T13:30:26;19.40;99.90
16513;DHT22;8369;48.030;11.598;2022-09-09T13:35:32;19.40;99.90
16513;DHT22;8369;48.030;11.598;2022-09-09T13:38:06;19.40;99.90
16513;DHT22;8369;48.030;11.598;2022-09-09T13:40:33;19.30;99.90
16513;DHT22;8369;48.030;11.598;2022-09-09T13:43:00;19.30;99.90
16513;DHT22;8369;48.030;11.598;2022-09-09T13:45:28;19.30;99.90
16513;DHT22;8369;48.030;11.598;2022-09-09T13:47:55;19.30;99.90
16513;DHT22;8369;48.030;11.598;2022-09-09T13:50:26;19.20;99.90
16513;DHT22;8369;48.030;11.598;2022-09-09T13:52:55;19.10;99.90
16513;DHT22;8369;48.030;11.598;2022-09-09T13:55:26;19.00;99.90
16513;DHT22;8369;48.030;11.598;2022-09-09T13:57:56;19.00;99.90
16513;DHT22;8369;48.030;11.598;2022-09-09T14:00:23;18.90;99.90
16513;DHT22;8369;48.030;11.598;2022-09-09T14:02:50;18.80;99.90
16513;DHT22;8369;48.030;11.598;2022-09-09T14:05:18;18.80;99.90
16513;DHT22;8369;48.030;11.598;2022-09-09T14:07:48;18.80;99.90
16513;DHT22;8369;48.030;11.598;2022-09-09T14:10:14;18.70;99.90
16513;DHT22;8369;48.030;11.598;2022-09-09T14:12:40;18.70;99.90
16513;DHT22;8369;48.030;11.598;2022-09-09T14:15:07;18.70;99.90
16513;DHT22;8369;48.030;11.598;2022-09-09T14:17:35;18.70;99.90
16513;DHT22;8369;48.030;11.598;2022-09-09T14:20:16;18.70;99.90
16513;DHT22;8369;48.030;11.598;2022-09-09T14:22:43;18.70;99.90
16513;DHT22;8369;48.030;11.598;2022-09-09T14:25:19;18.70;99.90
16513;DHT22;8369;48.030;11.598;2022-09-09T14:27:45;18.70;99.90
16513;DHT22;8369;48.030;11.598;2022-09-09T14:30:12;18.70;99.90
16513;DHT22;8369;48.030;11.598;2022-09-09T14:32:38;18.70;99.90
16513;DHT22;8369;48.030;11.598;2022-09-09T14:35:05;18.80;99.90
16513;DHT22;8369;48.030;11.598;2022-09-09T14:37:31;18.80;99.90
16513;DHT22;8369;48.030;11.598;2022-09-09T14:39:57;18.90;99.90
16513;DHT22;8369;48.030;11.598;2022-09-09T14:42:24;18.80;99.90
16513;DHT22;8369;48.030;11.598;2022-09-09T14:44:52;18.90;99.90
16513;DHT22;8369;48.030;11.598;2022-09-09T14:47:18;18.90;99.90
16513;DHT22;8369;48.030;11.598;2022-09-09T14:49:44;18.90;99.90
16513;DHT22;8369;48.030;11.598;2022-09-09T14:52:14;18.90;99.90
16513;DHT22;8369;48.030;11.598;2022-09-09T14:54:40;18.90;99.90
16513;DHT22;8369;48.030;11.598;2022-09-09T14:57:06;19.00;99.90
16513;DHT22;8369;48.030;11.598;2022-09-09T14:59:42;19.00;99.90
16513;DHT22;8369;48.030;11.598;2022-09-09T15:02:09;19.00;99.90
16513;DHT22;8369;48.030;11.598;2022-09-09T15:04:37;19.10;99.90
16513;DHT22;8369;48.030;11.598;2022-09-09T15:07:03;19.10;99.90
16513;DHT22;8369;48.030;11.598;2022-09-09T15:09:29;19.10;99.90
16513;DHT22;8369;48.030;11.598;2022-09-09T15:11:55;19.10;99.90
16513;DHT22;8369;48.030;11.598;2022-09-09T15:14:24;19.10;99.90
16513;DHT22;8369;48.030;11.598;2022-09-09T15:16:51;19.10;99.90
16513;DHT22;8369;48.030;11.598;2022-09-09T15:19:17;19.10;99.90
16513;DHT22;8369;48.030;11.598;2022-09-09T15:21:43;19.10;99.90
16513;DHT22;8369;48.030;11.598;2022-09-09T15:24:10;19.10;99.90
16513;DHT22;8369;48.030;11.598;2022-09-09T15:26:37;19.10;99.90
16513;DHT22;8369;48.030;11.598;2022-09-09T15:29:07;19.10;99.90
16513;DHT22;8369;48.030;11.598;2022-09-09T15:31:33;19.00;99.90
16513;DHT22;8369;48.030;11.598;2022-09-09T15:34:01;19.00;99.90
16513;DHT22;8369;48.030;11.598;2022-09-09T15:39:00;18.90;99.90
16513;DHT22;8369;48.030;11.598;2022-09-09T15:41:26;18.90;99.90
16513;DHT22;8369;48.030;11.598;2022-09-09T15:43:54;18.90;99.90
16513;DHT22;8369;48.030;11.598;2022-09-09T15:46:26;18.80;99.90
16513;DHT22;8369;48.030;11.598;2022-09-09T15:49:09;18.80;99.90
16513;DHT22;8369;48.030;11.598;2022-09-09T15:51:37;18.80;99.90
16513;DHT22;8369;48.030;11.598;2022-09-09T15:54:04;18.80;99.90
16513;DHT22;8369;48.030;11.598;2022-09-09T15:56:30;18.70;99.90
16513;DHT22;8369;48.030;11.598;2022-09-09T15:58:57;18.70;99.90
16513;DHT22;8369;48.030;11.598;2022-09-09T16:01:24;18.70;99.90
16513;DHT22;8369;48.030;11.598;2022-09-09T16:03:50;18.70;99.90
16513;DHT22;8369;48.030;11.598;2022-09-09T16:06:21;18.60;99.90
16513;DHT22;8369;48.030;11.598;2022-09-09T16:08:50;18.60;99.90
16513;DHT22;8369;48.030;11.598;2022-09-09T16:11:21;18.60;99.90
16513;DHT22;8369;48.030;11.598;2022-09-09T16:13:50;18.60;99.90
16513;DHT22;8369;48.030;11.598;2022-09-09T16:16:18;18.50;99.90
16513;DHT22;8369;48.030;11.598;2022-09-09T16:18:48;18.50;99.90
16513;DHT22;8369;48.030;11.598;2022-09-09T16:21:20;18.50;99.90
16513;DHT22;8369;48.030;11.598;2022-09-09T16:23:47;18.50;99.90
16513;DHT22;8369;48.030;11.598;2022-09-09T16:26:16;18.50;99.90
16513;DHT22;8369;48.030;11.598;2022-09-09T16:28:42;18.50;99.90
16513;DHT22;8369;48.030;11.598;2022-09-09T16:31:09;18.50;99.90
16513;DHT22;8369;48.030;11.598;2022-09-09T16:33:36;18.50;99.90
16513;DHT22;8369;48.030;11.598;2022-09-09T16:36:14;18.50;99.90
16513;DHT22;8369;48.030;11.598;2022-09-09T16:38:40;18.50;99.90
16513;DHT22;8369;48.030;11.598;2022-09-09T16:41:08;18.40;99.90
16513;DHT22;8369;48.030;11.598;2022-09-09T16:43:35;18.40;99.90
16513;DHT22;8369;48.030;11.598;2022-09-09T16:46:02;18.40;99.90
16513;DHT22;8369;48.030;11.598;2022-09-09T16:48:33;18.40;99.90
16513;DHT22;8369;48.030;11.598;2022-09-09T16:51:13;18.40;99.90
16513;DHT22;8369;48.030;11.598;2022-09-09T16:53:40;18.30;99.90
16513;DHT22;8369;48.030;11.598;2022-09-09T16:56:10;18.30;99.90
16513;DHT22;8369;48.030;11.598;2022-09-09T16:58:36;18.20;99.90
16513;DHT22;8369;48.030;11.598;2022-09-09T17:01:03;18.10;99.90
16513;DHT22;8369;48.030;11.598;2022-09-09T17:03:32;18.10;99.90
16513;DHT22;8369;48.030;11.598;2022-09-09T17:05:58;18.10;99.90
16513;DHT22;8369;48.030;11.598;2022-09-09T17:08:30;18.00;99.90
16513;DHT22;8369;48.030;11.598;2022-09-09T17:10:57;18.00;99.90
16513;DHT22;8369;48.030;11.598;2022-09-09T17:13:33;17.90;99.90
16513;DHT22;8369;48.030;11.598;2022-09-09T17:16:06;17.80;99.90
16513;DHT22;8369;48.030;11.598;2022-09-09T17:18:35;17.80;99.90
16513;DHT22;8369;48.030;11.598;2022-09-09T17:21:06;17.80;99.90
16513;DHT22;8369;48.030;11.598;2022-09-09T17:23:33;17.70;99.90
16513;DHT22;8369;48.030;11.598;2022-09-09T17:26:00;17.70;99.90
16513;DHT22;8369;48.030;11.598;2022-09-09T17:28:26;17.60;99.90
16513;DHT22;8369;48.030;11.598;2022-09-09T17:31:00;17.60;99.90
16513;DHT22;8369;48.030;11.598;2022-09-09T17:33:33;17.50;99.90
16513;DHT22;8369;48.030;11.598;2022-09-09T17:36:00;17.40;99.90
16513;DHT22;8369;48.030;11.598;2022-09-09T17:38:27;17.40;99.90
16513;DHT22;8369;48.030;11.598;2022-09-09T17:41:07;17.30;99.90
16513;DHT22;8369;48.030;11.598;2022-09-09T17:43:33;17.20;99.90
16513;DHT22;8369;48.030;11.598;2022-09-09T17:46:20;17.20;99.90
16513;DHT22;8369;48.030;11.598;2022-09-09T17:48:49;17.10;99.90
16513;DHT22;8369;48.030;11.598;2022-09-09T17:51:20;17.00;99.90
16513;DHT22;8369;48.030;11.598;2022-09-09T17:53:53;17.00;99.90
16513;DHT22;8369;48.030;11.598;2022-09-09T17:56:21;16.90;99.90
16513;DHT22;8369;48.030;11.598;2022-09-09T17:58:48;16.80;99.90
16513;DHT22;8369;48.030;11.598;2022-09-09T18:01:21;16.80;99.90
16513;DHT22;8369;48.030;11.598;2022-09-09T18:03:49;16.70;99.90
16513;DHT22;8369;48.030;11.598;2022-09-09T18:06:17;16.60;99.90
16513;DHT22;8369;48.030;11.598;2022-09-09T18:08:55;16.50;99.90
16513;DHT22;8369;48.030;11.598;2022-09-09T18:11:22;16.50;99.90
16513;DHT22;8369;48.030;11.598;2022-09-09T18:13:53;16.40;99.90
16513;DHT22;8369;48.030;11.598;2022-09-09T18:16:20;16.40;99.90
16513;DHT22;8369;48.030;11.598;2022-09-09T18:18:47;16.30;99.90
16513;DHT22;8369;48.030;11.598;2022-09-09T18:21:20;16.30;99.90
16513;DHT22;8369;48.030;11.598;2022-09-09T18:23:48;16.30;99.90
16513;DHT22;8369;48.030;11.598;2022-09-09T18:26:24;16.20;99.90
16513;DHT22;8369;48.030;11.598;2022-09-09T18:28:55;16.10;99.90
16513;DHT22;8369;48.030;11.598;2022-09-09T18:31:23;16.10;99.90
16513;DHT22;8369;48.030;11.598;2022-09-09T18:33:50;16.00;99.90
16513;DHT22;8369;48.030;11.598;2022-09-09T18:36:23;16.00;99.90
16513;DHT22;8369;48.030;11.598;2022-09-09T18:38:50;15.90;99.90
16513;DHT22;8369;48.030;11.598;2022-09-09T18:41:22;15.90;99.90
16513;DHT22;8369;48.030;11.598;2022-09-09T18:43:52;15.90;99.90
16513;DHT22;8369;48.030;11.598;2022-09-09T18:49:06;15.90;99.90
16513;DHT22;8369;48.030;11.598;2022-09-09T18:51:36;15.90;99.90
16513;DHT22;8369;48.030;11.598;2022-09-09T18:54:10;15.80;99.90
16513;DHT22;8369;48.030;11.598;2022-09-09T18:56:47;15.90;99.90
16513;DHT22;8369;48.030;11.598;2022-09-09T18:59:28;15.80;99.90
16513;DHT22;8369;48.030;11.598;2022-09-09T19:01:54;15.80;99.90
16513;DHT22;8369;48.030;11.598;2022-09-09T19:04:22;15.80;99.90
16513;DHT22;8369;48.030;11.598;2022-09-09T19:06:51;15.80;99.90
16513;DHT22;8369;48.030;11.598;2022-09-09T19:09:22;15.80;99.90
16513;DHT22;8369;48.030;11.598;2022-09-09T19:11:51;15.80;99.90